2004 MUIFA (2004319N10134)


On this page: IBTrACS data - Map and Plots - Positions - Intensities - Original source data

Summary

Start Nov 13
End Nov 26
Basins NI
WP
LMI 115 kt
Sources jtwc_wp
tokyo
cma
hko
In WMO? Yes
Previous storm 2005 AROLA (SI)
Previous in basin 2004 NOCK-TEN (WP)
Concurrent storms 2005 AROLA (SI)
2004 MUIFA (WP)
2005 BENTO (SI)
2004 MERBOK (WP)
2004 OTTO (NA)
Next in basin 2004 MERBOK (WP)
Next storm 2005 BENTO (SI)

top of page IBTrACS Data: File Access

top of page HURSAT Data: File Access

Image of storm

top of page Plots:

Map of storm track will not appear if FTP is down
Time series of cyclone Maximum Sustained Wind will not appear if FTP is down
Time series of cyclone Minimum Central Pressure will not appear if FTP is down

top of page Track Data:Position

jtwc_wp tokyo cma hko
Date Lat Lon Lat Lon Lat Lon Lat Lon
2004-11-13 18:00:00 11.1 133.5 8.9 134.4 8.9 134.6
2004-11-14 00:00:00 11.1 131.8 10.1 131.5 10.1 133.6
2004-11-14 06:00:00 11.2 130.1 11.2 130.7 10.9 131.4 11.4 130.7
2004-11-14 12:00:00 11.5 128.5 12.0 128.5 12.3 129.5 12.5 129.5
2004-11-14 18:00:00 11.6 127.6 12.5 126.8 12.6 127.5 12.8 127.2
2004-11-15 00:00:00 12.2 127.0 12.2 126.0 12.5 126.3 12.4 126.1
2004-11-15 06:00:00 13.0 127.1 13.2 125.8 13.0 126.0 13.2 125.7
2004-11-15 12:00:00 13.5 126.4 13.9 125.3 13.6 125.7 13.6 125.5
2004-11-15 18:00:00 13.7 125.6 14.0 125.4 13.9 125.4 13.8 125.0
2004-11-16 00:00:00 14.5 125.7 14.1 125.4 14.2 125.4 14.0 124.9
2004-11-16 06:00:00 14.5 124.9 14.6 124.6 14.6 124.6 14.6 124.6
2004-11-16 12:00:00 14.5 124.2 14.4 124.0 14.4 123.9 14.2 124.0
2004-11-16 18:00:00 14.4 123.6 14.4 123.8 14.4 123.7 14.3 123.8
2004-11-17 00:00:00 14.6 123.6 14.5 123.7 14.4 123.5 14.5 123.7
2004-11-17 06:00:00 14.8 123.6 14.8 123.7 14.7 123.5 14.6 123.6
2004-11-17 12:00:00 15.2 123.8 15.1 123.8 15.0 123.6 14.7 123.7
2004-11-17 18:00:00 15.5 123.8 15.5 123.7 15.4 123.7 15.3 123.7
2004-11-18 00:00:00 15.7 123.8 15.6 123.7 15.6 123.7 15.5 123.7
2004-11-18 06:00:00 15.9 123.9 15.8 123.9 15.7 123.9 15.7 123.8
2004-11-18 12:00:00 15.9 124.2 15.9 124.1 15.8 124.1 15.8 124.1
2004-11-18 18:00:00 15.7 124.4 15.8 124.3 15.7 124.3 15.8 124.3
2004-11-19 00:00:00 15.2 124.2 15.5 124.3 15.5 124.3 15.5 124.3
2004-11-19 06:00:00 14.7 124.1 14.8 124.1 14.8 124.1 14.8 124.1
2004-11-19 12:00:00 14.2 123.7 14.3 123.7 14.3 123.7 14.3 123.7
2004-11-19 18:00:00 13.7 122.8 13.5 122.6 13.6 122.6 13.7 122.6
jtwc_wp tokyo cma hko
2004-11-20 00:00:00 12.8 121.6 12.8 121.5 12.8 121.6 12.8 121.5
2004-11-20 06:00:00 12.5 120.3 12.4 120.2 12.4 120.2 12.4 120.3
2004-11-20 12:00:00 12.3 119.3 12.5 119.5 12.3 119.3 12.2 119.4
2004-11-20 18:00:00 12.2 118.3 12.4 118.4 12.3 118.4 12.2 118.4
2004-11-21 00:00:00 11.9 117.2 12.1 117.2 12.1 117.2 12.1 117.2
2004-11-21 06:00:00 11.9 116.1 12.0 116.1 11.9 116.1 11.9 116.1
2004-11-21 12:00:00 11.8 115.2 11.9 115.2 11.9 115.2 11.8 115.2
2004-11-21 18:00:00 11.6 114.4 11.8 114.3 11.8 114.4 11.7 114.4
2004-11-22 00:00:00 11.4 113.6 11.5 113.7 11.5 113.7 11.5 113.7
2004-11-22 06:00:00 11.1 113.1 11.0 112.9 11.1 113.0 11.1 113.0
2004-11-22 12:00:00 10.8 112.6 10.8 112.7 10.8 112.6 10.8 112.6
2004-11-22 18:00:00 10.5 112.1 10.6 112.3 10.6 112.2 10.5 112.2
2004-11-23 00:00:00 10.1 111.7 10.6 112.2 10.3 111.7 10.3 111.7
2004-11-23 06:00:00 9.9 111.1 10.1 111.5 9.9 111.2 10.0 111.2
2004-11-23 12:00:00 9.6 110.6 9.9 110.8 9.8 110.8 9.8 110.7
2004-11-23 18:00:00 9.3 110.2 9.6 110.2 9.8 110.3 9.6 110.2
2004-11-24 00:00:00 9.1 109.7 9.0 109.2 9.5 109.7 9.3 109.5
2004-11-24 06:00:00 8.8 108.8 8.9 107.8 8.9 108.9 8.9 108.7
2004-11-24 12:00:00 8.5 107.4 8.6 106.2 8.5 108.2 8.4 107.3
2004-11-24 18:00:00 8.3 105.7 8.5 104.8 8.3 107.4 8.3 105.6
2004-11-25 00:00:00 8.7 103.6 8.4 103.8 8.8 103.6
2004-11-25 06:00:00 8.7 101.7 8.5 102.0 8.6 101.9
2004-11-25 12:00:00 8.8 100.5 9.2 100.3 8.7 100.7
2004-11-25 18:00:00 9.9 99.5 10.1 99.8
jtwc_wp tokyo cma hko
2004-11-26 00:00:00 11.3 99.9

top of pageTrack Data:Intensity

jtwc_wp tokyo cma hko
Date Wind Pres Wind Pres Wind Pres Wind Pres
2004-11-13 18:00:00 20. 1004. 1004. 19. 1004.
2004-11-14 00:00:00 30. 1000. 1004. 29. 1000.
2004-11-14 06:00:00 30. 1000. 1000. 29. 1000. 30. 1000.
2004-11-14 12:00:00 35. 997. 1000. 29. 1000. 35. 996.
2004-11-14 18:00:00 35. 997. 35. 996. 35. 996. 35. 996.
2004-11-15 00:00:00 35. 997. 35. 996. 35. 996. 35. 996.
2004-11-15 06:00:00 35. 997. 35. 996. 35. 996. 35. 996.
2004-11-15 12:00:00 35. 997. 35. 996. 35. 996. 40. 992.
2004-11-15 18:00:00 35. 997. 35. 996. 35. 996. 40. 992.
2004-11-16 00:00:00 40. 994. 35. 994. 35. 995. 40. 992.
2004-11-16 06:00:00 45. 991. 45. 990. 45. 990. 45. 988.
2004-11-16 12:00:00 55. 984. 50. 990. 49. 990. 50. 984.
2004-11-16 18:00:00 55. 984. 50. 990. 49. 985. 50. 984.
2004-11-17 00:00:00 60. 980. 50. 985. 49. 985. 50. 984.
2004-11-17 06:00:00 65. 976. 50. 985. 54. 985. 50. 984.
2004-11-17 12:00:00 75. 967. 55. 975. 54. 985. 55. 980.
2004-11-17 18:00:00 90. 954. 65. 960. 64. 975. 65. 970.
2004-11-18 00:00:00 105. 938. 75. 960. 78. 960. 75. 960.
2004-11-18 06:00:00 115. 927. 80. 950. 78. 960. 80. 955.
2004-11-18 12:00:00 115. 927. 80. 950. 78. 960. 80. 955.
2004-11-18 18:00:00 105. 938. 75. 955. 78. 960. 75. 960.
2004-11-19 00:00:00 105. 938. 70. 960. 68. 970. 70. 965.
2004-11-19 06:00:00 90. 954. 70. 960. 68. 970. 70. 965.
2004-11-19 12:00:00 85. 958. 65. 965. 68. 970. 70. 965.
2004-11-19 18:00:00 80. 963. 50. 985. 64. 975. 65. 970.
jtwc_wp tokyo cma hko
2004-11-20 00:00:00 75. 967. 45. 990. 58. 980. 60. 975.
2004-11-20 06:00:00 65. 976. 55. 980. 58. 980. 60. 975.
2004-11-20 12:00:00 60. 980. 55. 980. 58. 980. 60. 975.
2004-11-20 18:00:00 65. 976. 55. 980. 58. 980. 60. 975.
2004-11-21 00:00:00 65. 976. 55. 980. 58. 980. 60. 975.
2004-11-21 06:00:00 70. 972. 60. 975. 58. 980. 60. 975.
2004-11-21 12:00:00 80. 963. 65. 965. 64. 975. 65. 970.
2004-11-21 18:00:00 90. 954. 65. 965. 64. 975. 65. 970.
2004-11-22 00:00:00 85. 958. 65. 965. 64. 975. 65. 970.
2004-11-22 06:00:00 85. 958. 60. 975. 58. 980. 60. 975.
2004-11-22 12:00:00 75. 967. 60. 975. 58. 980. 60. 975.
2004-11-22 18:00:00 65. 976. 60. 975. 58. 980. 60. 975.
2004-11-23 00:00:00 65. 976. 55. 980. 58. 980. 60. 975.
2004-11-23 06:00:00 65. 976. 55. 985. 58. 980. 60. 975.
2004-11-23 12:00:00 60. 980. 55. 985. 58. 980. 60. 975.
2004-11-23 18:00:00 55. 984. 50. 990. 54. 985. 55. 980.
2004-11-24 00:00:00 55. 984. 50. 990. 54. 985. 55. 980.
2004-11-24 06:00:00 50. 987. 45. 994. 54. 985. 50. 984.
2004-11-24 12:00:00 40. 994. 35. 998. 45. 990. 45. 988.
2004-11-24 18:00:00 40. 994. 35. 998. 39. 995. 40. 992.
2004-11-25 00:00:00 40. 994. 35. 998. 40. 992.
2004-11-25 06:00:00 35. 997. 35. 1000. 35. 996.
2004-11-25 12:00:00 30. 1000. 1004. 30. 1000.
2004-11-25 18:00:00 30. 1000. 1008.
jtwc_wp tokyo cma hko
2004-11-26 00:00:00 25. 1002.

top of page Links to source data

Source Source file Format
jtwc_wp bwp292004.txt ATCF
tokyo bst_all.txt:Line=54314:MUIFA:425 JMA text table
cma CH2004BST.txt:Storm=30:Muifa CMA text table
hko tc-besttrack-data-current.txt:Line=31124:MUIFA HKO Text table